Latest Weather Observations for Port Kembla Harbour

IDN60801

Issued at 9:35 am EST Thursday 2 October 2014 (issued every 30 minutes, with the page automatically refreshed every 10 minutes)

About weather observations | Map of weather stations | Latest weather observations for NSW | Other Formats
Station Details ID: 068253 Name: PORT KEMBLA NTC AWS Lat: -34.47 Lon: 150.91 Height: 0.0 m
Data from the previous 72 hours. | See also: Recent months for locations in New South Wales
Date/Time
EST
Temp
°C
App
Temp
°C
Dew
Point
Rel
Hum
%
Delta-T
°C
Wind Press
QNH
hPa
Press
MSL
hPa
Rain
since 9 am
mm
Dir
 
Spd
km/h
Gust
km/h
Spd
kts
Gust
kts
02/09:30am 18.2 - - - - NNW 7 17 4 9 1020.5 1020.5 -
02/09:00am 16.6 - - - - NW 17 22 9 12 1020.9 1020.9 -
02/08:30am 15.9 - - - - NW 19 22 10 12 1021.0 1021.0 -
02/08:00am 15.1 - - - - NW 19 28 10 15 1021.2 1021.2 -
02/07:30am 14.8 - - - - NW 20 26 11 14 1021.3 1021.3 -
02/07:00am 14.2 - - - - NW 20 28 11 15 1021.3 1021.3 -
02/06:30am 13.6 - - - - NW 15 20 8 11 1021.4 1021.4 -
02/06:00am 12.2 - - - - W 11 15 6 8 1021.1 1021.1 -
02/05:30am 12.1 - - - - W 11 15 6 8 1021.1 1021.1 -
02/05:00am 11.1 - - - - W 9 11 5 6 1021.2 1021.2 -
02/04:30am 10.7 - - - - WSW 9 11 5 6 1021.1 1021.1 -
02/04:00am 11.1 - - - - WSW 6 7 3 4 1021.1 1021.1 -
02/03:30am 11.3 - - - - WSW 7 9 4 5 1020.9 1020.9 -
02/03:00am 11.4 - - - - WSW 7 9 4 5 1020.9 1020.9 -
02/02:30am 11.8 - - - - WSW 7 9 4 5 1021.2 1021.2 -
02/02:00am 12.4 - - - - W 9 13 5 7 1021.3 1021.3 -
02/01:30am 12.3 - - - - SW 9 11 5 6 1021.7 1021.7 -
02/01:00am 13.1 - - - - WSW 7 9 4 5 1022.0 1022.0 -
02/12:30am 13.1 - - - - WSW 7 9 4 5 1022.3 1022.3 -
02/12:00am 13.1 - - - - WSW 11 13 6 7 1022.6 1022.6 -
 
Date/Time
EST
Temp
°C
App
Temp
°C
Dew
Point
Rel
Hum
%
Delta-T
°C
Wind Press
QNH
hPa
Press
MSL
hPa
Rain
since 9 am
mm
Dir
 
Spd
km/h
Gust
km/h
Spd
kts
Gust
kts
01/11:30pm 13.3 - - - - SW 9 13 5 7 1022.7 1022.7 -
01/11:00pm 13.6 - - - - WSW 9 13 5 7 1022.7 1022.7 -
01/10:30pm 13.6 - - - - W 9 13 5 7 1022.6 1022.6 -
01/10:00pm 13.6 - - - - WSW 9 15 5 8 1022.7 1022.7 -
01/09:30pm 13.8 - - - - W 11 13 6 7 1022.6 1022.6 -
01/09:00pm 13.9 - - - - WSW 11 13 6 7 1022.4 1022.4 -
01/08:30pm 14.6 - - - - WSW 11 15 6 8 1022.0 1022.0 -
01/08:00pm 14.8 - - - - WSW 11 19 6 10 1021.8 1021.8 -
01/07:30pm 15.1 - - - - SW 9 13 5 7 1021.5 1021.5 -
01/07:00pm 15.7 - - - - S 9 17 5 9 1021.3 1021.3 -
01/06:30pm 15.6 - - - - S 9 17 5 9 1020.7 1020.7 -
01/06:00pm 15.9 - - - - S 11 20 6 11 1020.3 1020.3 -
01/05:30pm 16.1 - - - - S 13 26 7 14 1020.2 1020.2 -
01/05:00pm 16.5 - - - - S 13 24 7 13 1019.9 1019.9 -
01/04:30pm 16.8 - - - - S 11 28 6 15 1019.6 1019.6 -
01/04:00pm 16.4 - - - - SSE 17 30 9 16 1019.1 1019.1 -
01/03:30pm 16.4 - - - - SSE 15 28 8 15 1018.9 1018.9 -
01/03:00pm 16.8 - - - - SSE 13 26 7 14 1018.5 1018.5 -
01/02:30pm 17.1 - - - - SSE 15 35 8 19 1018.2 1018.2 -
01/02:00pm 16.8 - - - - SE 19 33 10 18 1018.1 1018.1 -
01/01:30pm 17.2 - - - - SSE 17 30 9 16 1018.0 1018.0 -
01/01:00pm 17.0 - - - - SSE 19 32 10 17 1017.9 1017.9 -
01/12:30pm 17.0 - - - - SE 19 28 10 15 1018.0 1018.0 -
01/12:00pm 18.2 - - - - WSW 20 39 11 21 1017.8 1017.8 -
01/11:30am 17.6 - - - - WSW 24 41 13 22 1017.7 1017.7 -
01/11:00am 17.5 - - - - WSW 30 43 16 23 1017.6 1017.6 -
01/10:30am 16.7 - - - - WSW 30 46 16 25 1017.5 1017.5 -
01/10:00am 16.5 - - - - WSW 35 50 19 27 1017.3 1017.3 -
01/09:32am 16.4 - - - - SW 30 48 16 26 1017.3 1017.3 -
01/09:30am 16.2 - - - - WSW 32 50 17 27 1017.2 1017.2 -
01/09:00am 15.5 - - - - WSW 37 50 20 27 1016.7 1016.7 -
01/08:30am 14.9 - - - - WSW 43 52 23 28 1016.4 1016.4 -
01/08:00am 14.8 - - - - WSW 41 50 22 27 1015.8 1015.8 -
01/07:30am 15.0 - - - - WSW 41 50 22 27 1015.4 1015.4 -
01/07:00am 14.6 - - - - WSW 41 50 22 27 1015.0 1015.0 -
01/06:30am 14.3 - - - - WSW 35 50 19 27 1014.6 1014.6 -
01/06:00am 14.5 - - - - WSW 28 48 15 26 1014.3 1014.3 -
01/05:59am 14.5 - - - - WSW 28 48 15 26 1014.3 1014.3 -
01/05:30am 14.8 - - - - W 30 43 16 23 1013.6 1013.6 -
01/05:00am 15.7 - - - - W 32 46 17 25 1013.1 1013.1 -
01/04:30am 16.7 - - - - WSW 33 50 18 27 1012.4 1012.4 -
01/04:21am 17.0 - - - - W 28 50 15 27 1012.3 1012.3 -
01/04:00am 15.2 - - - - SSW 13 28 7 15 1011.6 1011.6 -
01/03:30am 15.8 - - - - SSW 13 26 7 14 1011.3 1011.3 -
01/03:00am 17.0 - - - - SW 24 35 13 19 1011.1 1011.1 -
01/02:30am 19.4 - - - - WSW 33 46 18 25 1010.6 1010.6 -
01/02:01am 20.2 - - - - WSW 32 50 17 27 1010.2 1010.2 -
01/02:00am 20.2 - - - - WSW 33 50 18 27 1010.1 1010.1 -
01/01:44am 20.9 - - - - WSW 32 50 17 27 1009.8 1009.8 -
01/01:30am 21.6 - - - - WSW 39 50 21 27 1009.3 1009.3 -
01/01:05am 24.6 - - - - WSW 28 50 15 27 1007.6 1007.6 -
01/01:00am 24.8 - - - - W 24 35 13 19 1007.3 1007.3 -
01/12:30am 25.3 - - - - WSW 17 28 9 15 1006.4 1006.4 -
01/12:00am 25.3 - - - - WSW 15 26 8 14 1006.1 1006.1 -
 
Date/Time
EST
Temp
°C
App
Temp
°C
Dew
Point
Rel
Hum
%
Delta-T
°C
Wind Press
QNH
hPa
Press
MSL
hPa
Rain
since 9 am
mm
Dir
 
Spd
km/h
Gust
km/h
Spd
kts
Gust
kts
30/11:30pm 26.3 - - - - W 19 32 10 17 1006.3 1006.3 -
30/11:00pm 26.8 - - - - NW 22 39 12 21 1006.1 1006.1 -
30/10:30pm 27.3 - - - - WNW 13 30 7 16 1006.4 1006.4 -
30/10:00pm 27.5 - - - - WNW 11 30 6 16 1006.4 1006.4 -
30/09:30pm 26.1 - - - - NE 2 6 1 3 1006.8 1006.8 -
30/09:00pm 26.8 - - - - SW 7 11 4 6 1006.8 1006.8 -
30/08:30pm 28.2 - - - - NNW 11 19 6 10 1006.6 1006.6 -
30/08:00pm 27.8 - - - - NW 6 15 3 8 1006.4 1006.4 -
30/07:30pm 27.7 - - - - NNW 13 19 7 10 1006.2 1006.2 -
30/07:00pm 29.1 - - - - NNW 20 33 11 18 1005.9 1005.9 -
30/06:30pm 29.1 - - - - NW 32 46 17 25 1005.6 1005.6 -
30/06:16pm 28.7 - - - - NW 28 43 15 23 1005.6 1005.6 -
30/06:00pm 28.9 - - - - NW 15 24 8 13 1005.6 1005.6 -
30/05:30pm 29.6 - - - - NW 24 33 13 18 1005.3 1005.3 -
30/05:13pm 30.8 - - - - NW 30 50 16 27 1005.2 1005.2 -
30/05:00pm 30.2 - - - - NW 26 46 14 25 1005.3 1005.3 -
30/04:30pm 30.3 - - - - NW 35 50 19 27 1005.5 1005.5 -
30/04:03pm 31.6 - - - - NW 30 48 16 26 1005.3 1005.3 -
30/04:00pm 31.0 - - - - NW 28 44 15 24 1005.4 1005.4 -
30/03:36pm 30.0 - - - - NW 28 50 15 27 1005.5 1005.5 -
30/03:30pm 31.9 - - - - NW 26 46 14 25 1005.4 1005.4 -
30/03:15pm 31.0 - - - - NW 32 50 17 27 1005.6 1005.6 -
30/03:00pm 31.6 - - - - NW 37 48 20 26 1005.7 1005.7 -
30/02:30pm 31.8 - - - - NW 37 50 20 27 1006.0 1006.0 -
30/02:20pm 31.5 - - - - NW 32 50 17 27 1005.9 1005.9 -
30/02:00pm 30.7 - - - - NW 35 48 19 26 1006.3 1006.3 -
30/01:32pm 31.2 - - - - NNW 32 50 17 27 1006.8 1006.8 -
30/01:30pm 30.1 - - - - NNW 30 44 16 24 1006.9 1006.9 -
30/01:00pm 30.8 - - - - NW 28 46 15 25 1007.3 1007.3 -
30/12:35pm 29.9 - - - - NW 30 50 16 27 1007.7 1007.7 -
30/12:30pm 30.0 - - - - NW 32 48 17 26 1007.9 1007.9 -
30/12:22pm 30.2 - - - - NNW 30 48 16 26 1008.0 1008.0 -
30/12:00pm 29.2 - - - - N 17 35 9 19 1008.5 1008.5 -
30/11:30am 28.5 - - - - N 17 32 9 17 1009.1 1009.1 -
30/11:00am 28.1 - - - - NNW 20 39 11 21 1009.8 1009.8 -
30/10:30am 27.0 - - - - NNW 20 32 11 17 1010.3 1010.3 -
30/10:00am 27.1 - - - - NNW 19 28 10 15 1011.1 1011.1 -
30/09:30am 25.9 - - - - NNW 13 20 7 11 1011.5 1011.5 -
30/09:00am 24.6 - - - - NNE 7 11 4 6 1011.8 1011.8 -
30/08:30am 21.6 - - - - NE 9 15 5 8 1012.0 1012.0 -
30/08:00am 21.0 - - - - E 7 11 4 6 1011.9 1011.9 -
30/07:30am 20.3 - - - - SE 4 6 2 3 1012.0 1012.0 -
30/07:00am 20.1 - - - - SE 2 6 1 3 1011.9 1011.9 -
30/06:30am 19.3 - - - - SSE 6 6 3 3 1011.9 1011.9 -
30/06:00am 18.1 - - - - E 2 9 1 5 1011.6 1011.6 -
30/05:30am 17.9 - - - - SE 4 6 2 3 1011.6 1011.6 -
30/05:00am 17.6 - - - - CALM 0 2 0 1 1011.4 1011.4 -
30/04:30am 17.6 - - - - NE 2 4 1 2 1011.4 1011.4 -
30/04:00am 17.4 - - - - NNE 2 4 1 2 1011.5 1011.5 -
30/03:30am 17.2 - - - - NNE 4 6 2 3 1011.7 1011.7 -
30/03:00am 17.2 - - - - N 4 6 2 3 1012.0 1012.0 -
30/02:30am 17.2 - - - - N 6 7 3 4 1012.3 1012.3 -
30/02:00am 17.6 - - - - NNE 7 11 4 6 1012.6 1012.6 -
30/01:30am 17.6 - - - - NE 7 9 4 5 1013.0 1013.0 -
30/01:00am 17.7 - - - - NE 7 9 4 5 1013.3 1013.3 -
30/12:30am 17.5 - - - - ENE 4 7 2 4 1013.5 1013.5 -
30/12:00am 17.3 - - - - E 4 6 2 3 1013.7 1013.7 -
 
Date/Time
EST
Temp
°C
App
Temp
°C
Dew
Point
Rel
Hum
%
Delta-T
°C
Wind Press
QNH
hPa
Press
MSL
hPa
Rain
since 9 am
mm
Dir
 
Spd
km/h
Gust
km/h
Spd
kts
Gust
kts
29/11:30pm 17.1 - - - - ESE 2 4 1 2 1013.8 1013.8 -
29/11:00pm 17.1 - - - - SW 2 6 1 3 1014.0 1014.0 -
29/10:30pm 17.4 - - - - SSW 4 6 2 3 1014.0 1014.0 -
29/10:00pm 17.8 - - - - SE 2 6 1 3 1014.0 1014.0 -
29/09:30pm 17.8 - - - - SSE 6 9 3 5 1014.2 1014.2 -
29/09:00pm 17.9 - - - - SSE 6 11 3 6 1014.2 1014.2 -
29/08:30pm 18.2 - - - - S 7 15 4 8 1014.4 1014.4 -
29/08:00pm 18.2 - - - - S 9 17 5 9 1014.2 1014.2 -

Other Formats:

Comma delimited format used in spreadsheet applications
http://www.bom.gov.au/fwo/IDN60801/IDN60801.95745.axf

JavaScript Object Notation format (JSON) in row-major order
http://www.bom.gov.au/fwo/IDN60801/IDN60801.95745.json